Weather at Chhatrapati Shivaji International Airport

Public forecast

Using degrees Celsius for public forecast. Weather courtesy of forecast.io.

Current aviation weather report (METAR) for Chhatrapati Shivaji International Airport

Report is more than 6 hours old.

2022/11/14 15:30 (retrieved 2 years ago)

VABB 141530Z 00000KT 2500 FU NSC 29/18 Q1013 NOSIG

Aviation forecast (TAF) for Chhatrapati Shivaji International Airport

Forecast is more than 12 hours old.

2023/02/22 18:45 (retrieved 1 year ago)

TAF VABB 221700Z 2218/2324 36006KT 3000 FU NSC BECMG 2220/2222 VRB03KT 2500 HZ FU BECMG 2304/2306 33005KT 3000 FU FEW100 BECMG 2307/2309 28010KT 4000 FU BECMG 2313/2315 36008KT 3500 FU NSC BECMG 2322/2324 2500 HZ FU